Las Vegas, Nevada
Traffic Map
Current Weather Conditions
Las Vegas, Nevada
Few Clouds
Few Clouds
12°
Feels Like: 12°
Wind Chill: 12° Ceiling: Unl
Heat Index: 12° Visibility: 10mi
Dew Point: Wind: 7mph
Humidity: 80% Direction: 240° (WSW)
Pressure: 30.19in Gusts: 0mph
Raw Report DataKLAS 280556Z 24006KT 10SM FEW250 12/08 A3019 RMK AO2 SLP219 T01170083 10167 20117 53009 $
Traffic Incident Summary
Active as of:
Severity:
Category:
InformationThere was an issue retrieving the traffic information for this location. Please try a different location or try again shortly.
Advertisements
Track Severe Weather on mobile